Time,TemperatureF,DewpointF,PressureIn,WindDirection,WindDirectionDegrees,WindSpeedMPH,WindSpeedGustMPH,Humidity,HourlyPrecipIn,Conditions,Clouds,dailyrainin,SolarRadiationWatts/m^2,SoftwareType,DateUTC
2013-02-20 00:00:00,11.0,3.0,-100.00,WNW,292,9.0,-999.0,70,-99.99,,,-99.99,0.000000,,2013-02-20 05:00:00,
2013-02-20 00:43:00,11.0,3.0,-100.00,WNW,292,9.0,-999.0,70,-99.99,,,-99.99,0.000000,,2013-02-20 05:43:00,
2013-02-20 00:52:00,11.0,3.0,-100.00,WNW,292,9.0,-999.0,70,-99.99,,,-99.99,0.000000,,2013-02-20 05:52:00,
2013-02-20 01:00:00,11.0,4.0,-100.00,WNW,292,9.0,-999.0,70,-99.99,,,-99.99,0.000000,,2013-02-20 06:00:00,
2013-02-20 01:42:00,11.0,4.0,-100.00,WNW,292,9.0,-999.0,70,-99.99,,,-99.99,0.000000,,2013-02-20 06:42:00,
2013-02-20 01:52:00,11.0,4.0,-100.00,WNW,292,9.0,-999.0,70,-99.99,,,-99.99,0.000000,,2013-02-20 06:52:00,
2013-02-20 03:00:00,11.0,4.0,-100.00,WNW,292,10.0,-999.0,71,-99.99,,,-99.99,0.000000,,2013-02-20 08:00:00,
2013-02-20 03:42:00,11.0,4.0,-100.00,WNW,292,10.0,-999.0,71,-99.99,,,-99.99,0.000000,,2013-02-20 08:42:00,
2013-02-20 03:52:00,11.0,4.0,-100.00,WNW,292,10.0,-999.0,71,-99.99,,,-99.99,0.000000,,2013-02-20 08:52:00,
2013-02-20 04:00:00,11.0,3.0,-100.00,WNW,292,11.0,-999.0,69,-99.99,,,-99.99,0.000000,,2013-02-20 09:00:00,
2013-02-20 04:42:00,11.0,3.0,-100.00,WNW,292,11.0,-999.0,69,-99.99,,,-99.99,0.000000,,2013-02-20 09:42:00,
2013-02-20 04:52:00,11.0,3.0,-100.00,WNW,292,11.0,-999.0,69,-99.99,,,-99.99,0.000000,,2013-02-20 09:52:00,
2013-02-20 05:00:00,11.0,3.0,-100.00,WNW,292,11.0,-999.0,68,-99.99,,,-99.99,0.000000,,2013-02-20 10:00:00,
2013-02-20 05:42:00,11.0,3.0,-100.00,WNW,292,11.0,-999.0,68,-99.99,,,-99.99,0.000000,,2013-02-20 10:42:00,
2013-02-20 05:52:00,11.0,3.0,-100.00,WNW,292,11.0,-999.0,68,-99.99,,,-99.99,0.000000,,2013-02-20 10:52:00,
2013-02-20 06:00:00,10.0,2.0,-100.00,WNW,292,10.0,-999.0,69,-99.99,,,-99.99,0.000000,,2013-02-20 11:00:00,
2013-02-20 06:42:00,10.0,2.0,-100.00,WNW,292,10.0,-999.0,69,-99.99,,,-99.99,0.000000,,2013-02-20 11:42:00,
2013-02-20 06:52:00,10.0,2.0,-100.00,WNW,292,10.0,-999.0,69,-99.99,,,-99.99,0.000000,,2013-02-20 11:52:00,
2013-02-20 07:00:00,10.0,3.0,-100.00,WNW,292,9.0,-999.0,70,-99.99,,,-99.99,0.000000,,2013-02-20 12:00:00,
2013-02-20 07:42:00,10.0,3.0,-100.00,WNW,292,9.0,-999.0,70,-99.99,,,-99.99,0.000000,,2013-02-20 12:42:00,
2013-02-20 07:53:00,10.0,3.0,-100.00,WNW,292,9.0,-999.0,70,-99.99,,,-99.99,0.000000,,2013-02-20 12:53:00,
2013-02-20 09:00:00,11.0,3.0,-100.00,WNW,292,11.0,-999.0,69,-99.99,,,-99.99,46.400002,,2013-02-20 14:00:00,
2013-02-20 09:42:00,11.0,3.0,-100.00,WNW,292,11.0,-999.0,69,-99.99,,,-99.99,46.400002,,2013-02-20 14:42:00,
2013-02-20 09:52:00,11.0,3.0,-100.00,WNW,292,11.0,-999.0,69,-99.99,,,-99.99,46.400002,,2013-02-20 14:52:00,
2013-02-20 10:00:00,13.0,5.0,-100.00,West,270,11.0,-999.0,69,-99.99,,,-99.99,157.759995,,2013-02-20 15:00:00,
2013-02-20 10:42:00,13.0,5.0,-100.00,West,270,11.0,-999.0,69,-99.99,,,-99.99,157.759995,,2013-02-20 15:42:00,
2013-02-20 10:52:00,13.0,5.0,-100.00,West,270,11.0,-999.0,69,-99.99,,,-99.99,157.759995,,2013-02-20 15:52:00,
2013-02-20 11:00:00,14.0,7.0,-100.00,West,270,11.0,-999.0,70,-99.99,,,-99.99,164.720001,,2013-02-20 16:00:00,
2013-02-20 11:42:00,14.0,7.0,-100.00,West,270,11.0,-999.0,70,-99.99,,,-99.99,164.720001,,2013-02-20 16:42:00,
2013-02-20 11:52:00,14.0,7.0,-100.00,West,270,11.0,-999.0,70,-99.99,,,-99.99,164.720001,,2013-02-20 16:52:00,
2013-02-20 14:00:00,18.0,9.0,-100.00,West,270,10.0,-999.0,68,-99.99,,,-99.99,278.399994,,2013-02-20 19:00:00,
2013-02-20 14:32:00,18.0,9.0,-100.00,West,270,10.0,-999.0,68,-99.99,,,-99.99,278.399994,,2013-02-20 19:32:00,
2013-02-20 14:42:00,18.0,9.0,-100.00,West,270,10.0,-999.0,68,-99.99,,,-99.99,278.399994,,2013-02-20 19:42:00,
2013-02-20 14:52:00,18.0,9.0,-100.00,West,270,10.0,-999.0,68,-99.99,,,-99.99,278.399994,,2013-02-20 19:52:00,
2013-02-20 16:00:00,18.0,9.0,-100.00,SW,225,11.0,-999.0,66,-99.99,,,-99.99,234.320007,,2013-02-20 21:00:00,
2013-02-20 16:42:00,18.0,9.0,-100.00,SW,225,11.0,-999.0,66,-99.99,,,-99.99,234.320007,,2013-02-20 21:42:00,
2013-02-20 16:52:00,18.0,9.0,-100.00,SW,225,11.0,-999.0,66,-99.99,,,-99.99,234.320007,,2013-02-20 21:52:00,
2013-02-20 17:00:00,18.0,9.0,-100.00,WSW,247,11.0,-999.0,67,-99.99,,,-99.99,121.800003,,2013-02-20 22:00:00,
2013-02-20 17:43:00,18.0,9.0,-100.00,WSW,247,11.0,-999.0,67,-99.99,,,-99.99,121.800003,,2013-02-20 22:43:00,
2013-02-20 17:52:00,18.0,9.0,-100.00,WSW,247,11.0,-999.0,67,-99.99,,,-99.99,121.800003,,2013-02-20 22:52:00,
2013-02-20 19:00:00,16.0,8.0,-100.00,WNW,292,9.0,-999.0,68,-99.99,,,-99.99,3.480000,,2013-02-21 00:00:00,
2013-02-20 19:32:00,16.0,8.0,-100.00,WNW,292,9.0,-999.0,68,-99.99,,,-99.99,3.480000,,2013-02-21 00:32:00,
2013-02-20 19:42:00,16.0,8.0,-100.00,WNW,292,9.0,-999.0,68,-99.99,,,-99.99,3.480000,,2013-02-21 00:42:00,
2013-02-20 19:52:00,16.0,8.0,-100.00,WNW,292,9.0,-999.0,68,-99.99,,,-99.99,3.480000,,2013-02-21 00:52:00,
2013-02-20 20:00:00,15.0,7.0,-100.00,WNW,292,9.0,-999.0,70,-99.99,,,-99.99,0.000000,,2013-02-21 01:00:00,
2013-02-20 20:42:00,15.0,7.0,-100.00,WNW,292,9.0,-999.0,70,-99.99,,,-99.99,0.000000,,2013-02-21 01:42:00,
2013-02-20 20:52:00,15.0,7.0,-100.00,WNW,292,9.0,-999.0,70,-99.99,,,-99.99,0.000000,,2013-02-21 01:52:00,
2013-02-20 21:00:00,14.0,7.0,-100.00,WNW,292,9.0,-999.0,71,-99.99,,,-99.99,0.000000,,2013-02-21 02:00:00,
2013-02-20 22:00:00,14.0,7.0,-100.00,WNW,292,10.0,-999.0,72,-99.99,,,-99.99,0.000000,,2013-02-21 03:00:00,
2013-02-20 22:42:00,14.0,7.0,-100.00,WNW,292,10.0,-999.0,72,-99.99,,,-99.99,0.000000,,2013-02-21 03:42:00,
2013-02-20 22:52:00,14.0,7.0,-100.00,WNW,292,10.0,-999.0,72,-99.99,,,-99.99,0.000000,,2013-02-21 03:52:00,
2013-02-20 23:00:00,13.0,7.0,-100.00,WNW,292,9.0,-999.0,75,-99.99,,,-99.99,0.000000,,2013-02-21 04:00:00,
2013-02-20 23:42:00,13.0,7.0,-100.00,WNW,292,9.0,-999.0,75,-99.99,,,-99.99,0.000000,,2013-02-21 04:42:00,
2013-02-20 23:52:00,13.0,7.0,-100.00,WNW,292,9.0,-999.0,75,-99.99,,,-99.99,0.000000,,2013-02-21 04:52:00,